Time;durP1;ratioP1;P1;durP2;ratioP2;P2;SDS_P1;SDS_P2;PMS_P1;PMS_P2;Temp;Humidity;BMP_temperature;BMP_pressure;BME280_temperature;BME280_humidity;BME280_pressure;Samples;Min_cycle;Max_cycle;Signal;HPM_P1;HPM_P2
2021/07/03 00:01:58;372696.00;1.24;642.87;60523.00;0.20;105.38;;;;;21.10;1.00;;;;;;2258128;61;1295;-85
2021/07/03 00:04:26;281951.00;0.94;486.89;73626.00;0.25;128.03;;;;;21.10;1.00;;;;;;2258256;61;1109;-85
2021/07/03 00:06:54;227305.00;0.76;392.91;69389.00;0.23;120.70;;;;;21.30;1.00;;;;;;2258176;61;1185;-86
2021/07/03 00:09:21;357715.00;1.19;617.12;71993.00;0.24;125.20;;;;;21.40;1.00;;;;;;2257801;61;1918;-85
2021/07/03 00:11:49;184390.00;0.61;319.05;77668.00;0.26;135.01;;;;;21.40;1.00;;;;;;2258414;61;1125;-85
2021/07/03 00:14:17;302319.00;1.01;521.91;77338.00;0.26;134.44;;;;;21.40;1.00;;;;;;2258657;61;2116;-86
2021/07/03 00:16:44;482626.00;1.61;831.92;109406.00;0.36;189.81;;;;;21.20;1.00;;;;;;2258763;61;1137;-85
2021/07/03 00:19:11;304231.00;1.01;525.19;71035.00;0.24;123.55;;;;;21.00;1.00;;;;;;2258514;61;1093;-86
2021/07/03 00:21:38;221702.00;0.74;383.27;72927.00;0.24;126.82;;;;;20.90;1.00;;;;;;2258168;61;1161;-86
2021/07/03 00:24:07;224184.00;0.75;387.54;60309.00;0.20;105.01;;;;;21.10;1.00;;;;;;2258701;61;1349;-85
2021/07/03 00:26:36;107955.00;0.36;187.30;0.00;0.00;0.62;;;;;21.20;1.00;;;;;;2258762;61;1185;-85
2021/07/03 00:29:03;82126.00;0.27;142.71;0.00;0.00;0.62;;;;;20.90;1.00;;;;;;2258811;61;1910;-85
2021/07/03 00:31:43;247826.00;0.83;428.21;7410.00;0.02;13.46;;;;;20.70;1.00;;;;;;2259060;61;1175;-85
2021/07/03 00:34:15;393524.00;1.31;678.67;74030.00;0.25;128.72;;;;;20.30;1.00;;;;;;2259586;61;1467;-85
2021/07/03 00:36:43;445350.00;1.48;767.78;44131.00;0.15;77.04;;;;;20.40;1.00;;;;;;2260426;61;1697;-85
2021/07/03 00:39:11;182303.00;0.61;315.46;0.00;0.00;0.62;;;;;20.50;1.00;;;;;;2261398;61;1765;-85
2021/07/03 00:41:38;191708.00;0.64;331.65;0.00;0.00;0.62;;;;;20.70;1.00;;;;;;2260788;61;2098;-85
2021/07/03 00:44:06;137480.00;0.46;238.23;0.00;0.00;0.62;;;;;20.60;1.00;;;;;;2258728;61;1307;-85
2021/07/03 00:46:33;85551.00;0.29;148.62;0.00;0.00;0.62;;;;;20.30;1.00;;;;;;2257544;61;1069;-85
2021/07/03 00:49:00;95621.00;0.32;166.01;0.00;0.00;0.62;;;;;20.20;1.00;;;;;;2257311;61;1998;-85
2021/07/03 00:51:27;25621.00;0.09;45.00;0.00;0.00;0.62;;;;;20.10;1.00;;;;;;2257524;61;1689;-85
2021/07/03 00:53:54;74170.00;0.25;128.97;0.00;0.00;0.62;;;;;20.00;1.00;;;;;;2257579;61;1779;-83
2021/07/03 00:56:27;36899.00;0.12;64.52;0.00;0.00;0.62;;;;;19.80;1.00;;;;;;2257744;61;1228;-83
2021/07/03 00:58:53;69611.00;0.23;121.09;0.00;0.00;0.62;;;;;19.10;1.00;;;;;;2257781;61;1229;-83
2021/07/03 01:01:20;53979.00;0.18;94.07;0.00;0.00;0.62;;;;;18.80;1.00;;;;;;2257385;61;1283;-83
2021/07/03 01:03:49;106293.00;0.35;184.43;0.00;0.00;0.62;;;;;18.80;1.00;;;;;;2258676;61;1301;-84
2021/07/03 01:06:16;162504.00;0.54;281.35;0.00;0.00;0.62;;;;;18.90;1.00;;;;;;2258589;61;1311;-83
2021/07/03 01:08:43;75421.00;0.25;131.13;0.00;0.00;0.62;;;;;18.90;1.00;;;;;;2257611;61;1939;-83
2021/07/03 01:11:10;29066.00;0.10;50.97;0.00;0.00;0.62;;;;;18.70;1.00;;;;;;2258679;61;1185;-86
2021/07/03 01:13:46;171572.00;0.57;296.97;0.00;0.00;0.62;;;;;18.80;1.00;;;;;;2259672;61;1510;-84
2021/07/03 01:16:15;311597.00;1.04;537.85;0.00;0.00;0.62;;;;;19.00;1.00;;;;;;2258723;61;1795;-84
2021/07/03 01:18:42;645426.00;2.15;1112.72;160578.00;0.54;278.04;;;;;19.00;1.00;;;;;;2262861;61;1637;-84
2021/07/03 01:21:12;111336.00;0.37;193.14;0.00;0.00;0.62;;;;;19.20;1.00;;;;;;2260758;61;1206;-84
2021/07/03 01:23:41;86801.00;0.29;150.78;0.00;0.00;0.62;;;;;19.20;1.00;;;;;;2259961;61;1258;-84
2021/07/03 01:26:08;77708.00;0.26;135.08;0.00;0.00;0.62;;;;;19.20;1.00;;;;;;2261326;61;1745;-84
2021/07/03 01:28:35;71817.00;0.24;124.90;0.00;0.00;0.62;;;;;19.00;1.00;;;;;;2263332;61;1939;-84
2021/07/03 01:31:05;182521.00;0.61;315.83;0.00;0.00;0.62;;;;;19.00;1.00;;;;;;2263425;61;1125;-83
2021/07/03 01:33:33;325874.00;1.09;562.39;30377.00;0.10;53.24;;;;;18.80;1.00;;;;;;2263233;61;1789;-84
2021/07/03 01:36:00;83697.00;0.28;145.42;0.00;0.00;0.62;;;;;18.40;1.00;;;;;;2263748;61;1577;-84
2021/07/03 01:38:27;193372.00;0.64;334.51;0.00;0.00;0.62;;;;;18.50;1.00;;;;;;2264171;61;1284;-83
2021/07/03 01:40:56;145258.00;0.48;251.63;0.00;0.00;0.62;;;;;18.60;1.00;;;;;;2264016;61;1183;-84
2021/07/03 01:43:24;391597.00;1.31;675.36;23129.00;0.08;40.69;;;;;18.70;1.00;;;;;;2263700;61;1628;-83
2021/07/03 01:45:51;414771.00;1.38;715.20;51657.00;0.17;90.05;;;;;18.80;1.00;;;;;;2260960;61;1147;-83
2021/07/03 01:48:27;166033.00;0.55;287.43;0.00;0.00;0.62;;;;;19.10;1.00;;;;;;2259430;61;1927;-83
2021/07/03 01:50:56;215086.00;0.72;371.89;0.00;0.00;0.62;;;;;19.10;1.00;;;;;;2258979;61;1590;-84
2021/07/03 01:53:23;261289.00;0.87;451.37;0.00;0.00;0.62;;;;;18.60;1.00;;;;;;2258774;61;1357;-83
2021/07/03 01:55:51;330424.00;1.10;570.21;22832.00;0.08;40.17;;;;;18.30;1.00;;;;;;2258881;61;1133;-83
2021/07/03 01:58:22;189072.00;0.63;327.11;0.00;0.00;0.62;;;;;17.90;1.00;;;;;;2258567;61;1819;-84
2021/07/03 02:00:49;148994.00;0.50;258.07;0.00;0.00;0.62;;;;;18.20;1.00;;;;;;2264092;61;1748;-83
2021/07/03 02:03:17;87242.00;0.29;151.55;0.00;0.00;0.62;;;;;18.30;1.00;;;;;;2258923;61;1585;-84
2021/07/03 02:05:44;90578.00;0.30;157.31;0.00;0.00;0.62;;;;;18.40;1.00;;;;;;2258539;61;1092;-83
2021/07/03 02:08:10;113441.00;0.38;196.77;0.00;0.00;0.62;;;;;18.40;1.00;;;;;;2258624;61;1121;-83
2021/07/03 02:10:38;282364.00;0.94;487.60;0.00;0.00;0.62;;;;;18.00;1.00;;;;;;2257933;61;2073;-83
2021/07/03 02:13:05;57096.00;0.19;99.46;0.00;0.00;0.62;;;;;17.70;1.00;;;;;;2257836;61;1390;-83
2021/07/03 02:15:33;408963.00;1.36;705.21;33284.00;0.11;58.27;;;;;17.50;1.00;;;;;;2257706;61;1179;-83
2021/07/03 02:18:01;64138.00;0.21;111.63;0.00;0.00;0.62;;;;;17.70;1.40;;;;;;2258655;61;1103;-83
2021/07/03 02:20:28;427673.00;1.43;737.38;17794.00;0.06;31.45;;;;;17.80;1.00;;;;;;2257707;61;1682;-83
2021/07/03 02:22:55;85491.00;0.28;148.52;0.00;0.00;0.62;;;;;18.30;1.00;;;;;;2257567;61;1392;-83
2021/07/03 02:25:22;110473.00;0.37;191.65;0.00;0.00;0.62;;;;;18.20;1.00;;;;;;2257431;61;1281;-84
2021/07/03 02:27:50;66013.00;0.22;114.87;0.00;0.00;0.62;;;;;17.90;1.00;;;;;;2259305;61;1248;-83
2021/07/03 02:30:18;128104.00;0.43;222.06;0.00;0.00;0.62;;;;;17.90;1.00;;;;;;2259732;61;2016;-83
2021/07/03 02:32:47;374580.00;1.25;646.11;86018.00;0.29;149.43;;;;;17.70;1.00;;;;;;2259681;61;1380;-83
2021/07/03 02:35:15;80013.00;0.27;139.06;0.00;0.00;0.62;;;;;17.70;1.00;;;;;;2259479;61;1137;-83
2021/07/03 02:37:43;733949.00;2.45;1266.16;139620.00;0.47;241.92;;;;;17.60;1.20;;;;;;2255512;61;1219;-83
2021/07/03 02:40:13;121728.00;0.41;211.06;0.00;0.00;0.62;;;;;17.80;2.60;;;;;;2255927;61;1780;-83
2021/07/03 02:42:44;386482.00;1.29;666.57;49720.00;0.17;86.70;;;;;18.10;1.00;;;;;;2256855;61;1365;-84
2021/07/03 02:45:14;48973.00;0.16;85.41;0.00;0.00;0.62;;;;;18.20;1.00;;;;;;2256991;61;1180;-83
2021/07/03 02:47:46;342537.00;1.14;591.03;43954.00;0.15;76.73;;;;;18.40;1.00;;;;;;2257424;61;1279;-83
2021/07/03 02:50:15;140599.00;0.47;243.60;0.00;0.00;0.62;;;;;18.40;1.00;;;;;;2257094;61;1927;-83
2021/07/03 02:52:43;100513.00;0.34;174.46;0.00;0.00;0.62;;;;;18.70;1.00;;;;;;2259194;61;1384;-84
2021/07/03 02:55:12;420736.00;1.40;725.46;33950.00;0.11;59.42;;;;;18.70;1.00;;;;;;2257118;61;1263;-83
2021/07/03 02:57:40;66502.00;0.22;115.72;0.00;0.00;0.62;;;;;18.50;1.00;;;;;;2257208;61;1787;-83
2021/07/03 03:00:08;247610.00;0.83;427.84;15046.00;0.05;26.69;;;;;18.50;1.00;;;;;;2257474;61;1133;-83
2021/07/03 03:02:36;73496.00;0.24;127.80;0.00;0.00;0.62;;;;;18.40;1.00;;;;;;2257854;61;1724;-83
2021/07/03 03:05:06;367869.00;1.23;634.57;78719.00;0.26;136.82;;;;;18.70;1.00;;;;;;2257676;61;1181;-83
2021/07/03 03:07:33;240224.00;0.80;415.14;76587.00;0.26;133.14;;;;;18.40;1.00;;;;;;2257376;61;1144;-83
2021/07/03 03:10:00;445089.00;1.48;767.34;81487.00;0.27;141.61;;;;;18.20;1.00;;;;;;2261312;61;2014;-83
2021/07/03 03:12:27;358080.00;1.19;617.75;76492.00;0.25;132.98;;;;;18.00;1.00;;;;;;2261146;61;1272;-83
2021/07/03 03:14:54;291608.00;0.97;503.49;76387.00;0.25;132.80;;;;;17.80;1.00;;;;;;2260969;61;1155;-83
2021/07/03 03:17:21;281736.00;0.94;486.52;68701.00;0.23;119.52;;;;;18.00;1.00;;;;;;2256621;61;1128;-83
2021/07/03 03:19:48;401547.00;1.34;692.46;75656.00;0.25;131.53;;;;;18.20;1.00;;;;;;2255253;61;1090;-83
2021/07/03 03:22:17;349696.00;1.17;603.34;90611.00;0.30;157.36;;;;;18.10;1.00;;;;;;2255568;61;1398;-83
2021/07/03 03:24:45;478881.00;1.60;825.47;97949.00;0.33;170.03;;;;;18.40;1.00;;;;;;2255402;61;1751;-83
2021/07/03 03:27:12;282518.00;0.94;487.87;76253.00;0.25;132.56;;;;;18.70;1.00;;;;;;2255627;61;1125;-84
2021/07/03 03:29:40;301875.00;1.01;521.14;77434.00;0.26;134.60;;;;;19.00;1.00;;;;;;2255937;61;1922;-83
2021/07/03 03:32:08;235690.00;0.79;407.34;64755.00;0.22;112.70;;;;;19.20;1.00;;;;;;2255705;61;1286;-83
2021/07/03 03:34:35;247977.00;0.83;428.47;80755.00;0.27;140.34;;;;;19.20;1.00;;;;;;2255737;61;1172;-83
2021/07/03 03:37:02;223626.00;0.75;386.58;86444.00;0.29;150.17;;;;;19.30;1.00;;;;;;2255774;61;1168;-84
2021/07/03 03:39:30;362849.00;1.21;625.95;79554.00;0.27;138.27;;;;;19.50;1.00;;;;;;2256301;61;1129;-84
2021/07/03 03:41:57;456517.00;1.52;786.99;126178.00;0.42;218.74;;;;;19.50;1.00;;;;;;2256246;61;1402;-84
2021/07/03 03:44:24;223855.00;0.75;386.98;77154.00;0.26;134.12;;;;;19.80;1.00;;;;;;2256215;61;1735;-84
2021/07/03 03:46:52;398754.00;1.33;687.66;69229.00;0.23;120.43;;;;;19.80;1.00;;;;;;2256194;61;1042;-84
2021/07/03 03:49:20;342617.00;1.14;591.17;105238.00;0.35;182.61;;;;;19.80;1.00;;;;;;2256615;61;1914;-83
2021/07/03 03:51:47;566821.00;1.89;976.96;129622.00;0.43;224.68;;;;;19.70;1.00;;;;;;2256867;61;1107;-83
2021/07/03 03:54:14;259547.00;0.87;448.37;87689.00;0.29;152.32;;;;;19.30;1.00;;;;;;2257052;61;1314;-84
2021/07/03 03:56:43;357392.00;1.19;616.57;79208.00;0.26;137.67;;;;;19.10;1.00;;;;;;2257537;61;1149;-84
2021/07/03 03:59:12;201416.00;0.67;348.36;0.00;0.00;0.62;;;;;19.00;1.00;;;;;;2257425;61;1164;-83
2021/07/03 04:01:39;396773.00;1.32;684.26;79832.00;0.27;138.75;;;;;18.90;1.00;;;;;;2257503;61;1145;-83
2021/07/03 04:04:06;160192.00;0.53;277.37;41629.00;0.14;72.71;;;;;18.60;1.00;;;;;;2257295;61;1275;-83
2021/07/03 04:06:33;130957.00;0.44;226.98;0.00;0.00;0.62;;;;;18.60;1.00;;;;;;2257693;61;1093;-83
2021/07/03 04:09:00;141239.00;0.47;244.71;0.00;0.00;0.62;;;;;18.60;1.00;;;;;;2257807;61;1936;-83
2021/07/03 04:11:27;315251.00;1.05;544.14;11249.00;0.04;20.11;;;;;18.80;1.00;;;;;;2263661;61;1114;-84
2021/07/03 04:13:55;89663.00;0.30;155.73;0.00;0.00;0.62;;;;;18.90;1.00;;;;;;2257575;61;1329;-84
2021/07/03 04:16:22;440505.00;1.47;759.45;134636.00;0.45;233.32;;;;;19.20;1.00;;;;;;2257735;61;1239;-84
2021/07/03 04:18:49;145847.00;0.49;252.65;0.00;0.00;0.62;;;;;19.40;1.00;;;;;;2257750;61;1173;-83
2021/07/03 04:21:16;178664.00;0.60;309.19;0.00;0.00;0.62;;;;;19.60;1.00;;;;;;2257987;61;1137;-83
2021/07/03 04:23:43;290167.00;0.97;501.02;37431.00;0.12;65.44;;;;;19.50;1.00;;;;;;2257899;61;1274;-84
2021/07/03 04:26:10;68030.00;0.23;118.36;0.00;0.00;0.62;;;;;18.90;1.00;;;;;;2257677;61;1627;-83
2021/07/03 04:28:37;190391.00;0.63;329.38;0.00;0.00;0.62;;;;;18.60;1.00;;;;;;2257769;61;1171;-83
2021/07/03 04:31:05;176627.00;0.59;305.68;0.00;0.00;0.62;;;;;18.50;1.00;;;;;;2257294;61;1960;-84
2021/07/03 04:33:32;128956.00;0.43;223.53;0.00;0.00;0.62;;;;;18.50;1.00;;;;;;2257498;61;1393;-84
2021/07/03 04:35:59;120552.00;0.40;209.03;0.00;0.00;0.62;;;;;18.80;1.00;;;;;;2256740;61;1073;-83
2021/07/03 04:38:26;138833.00;0.46;240.56;0.00;0.00;0.62;;;;;19.00;1.00;;;;;;2256875;61;1073;-83
2021/07/03 04:40:53;173018.00;0.58;299.46;0.00;0.00;0.62;;;;;18.80;1.00;;;;;;2257396;61;1116;-84
2021/07/03 04:43:20;129023.00;0.43;223.64;0.00;0.00;0.62;;;;;18.70;1.00;;;;;;2256906;61;1238;-83
2021/07/03 04:45:47;128602.00;0.43;222.92;0.00;0.00;0.62;;;;;18.80;1.00;;;;;;2257124;61;1138;-83
2021/07/03 04:48:15;186852.00;0.62;323.29;0.00;0.00;0.62;;;;;19.00;1.00;;;;;;2257210;61;1128;-83
2021/07/03 04:50:42;102104.00;0.34;177.20;0.00;0.00;0.62;;;;;19.00;1.00;;;;;;2256945;61;2022;-83
2021/07/03 04:53:11;153087.00;0.51;265.13;0.00;0.00;0.62;;;;;19.00;1.00;;;;;;2256497;61;1384;-83
2021/07/03 04:55:38;151366.00;0.50;262.16;0.00;0.00;0.62;;;;;19.00;1.00;;;;;;2257095;61;1689;-84
2021/07/03 04:58:04;121325.00;0.40;210.37;0.00;0.00;0.62;;;;;18.60;1.00;;;;;;2256574;61;1095;-83
2021/07/03 05:00:31;58754.00;0.20;102.32;0.00;0.00;0.62;;;;;18.70;1.00;;;;;;2256689;61;1117;-84
2021/07/03 05:02:58;148164.00;0.49;256.64;0.00;0.00;0.62;;;;;19.00;1.00;;;;;;2256597;61;1269;-84
2021/07/03 05:05:26;53169.00;0.18;92.67;0.00;0.00;0.62;;;;;19.00;1.00;;;;;;2257087;61;1128;-84
2021/07/03 05:07:54;239675.00;0.80;414.19;45569.00;0.15;79.52;;;;;18.80;1.00;;;;;;2257050;61;1120;-83
2021/07/03 05:10:21;66560.00;0.22;115.82;0.00;0.00;0.62;;;;;18.90;1.00;;;;;;2256648;61;1937;-84
2021/07/03 05:12:47;175460.00;0.58;303.67;0.00;0.00;0.62;;;;;19.30;1.00;;;;;;2256713;61;1770;-83
2021/07/03 05:15:14;507401.00;1.69;874.57;27868.00;0.09;48.89;;;;;19.10;1.00;;;;;;2256940;61;1225;-83
2021/07/03 05:17:41;80857.00;0.27;140.52;0.00;0.00;0.62;;;;;19.30;1.00;;;;;;2256882;61;1105;-83
2021/07/03 05:20:09;90373.00;0.30;156.95;0.00;0.00;0.62;;;;;19.50;1.00;;;;;;2256863;61;1703;-83
2021/07/03 05:22:38;145276.00;0.48;251.67;0.00;0.00;0.62;;;;;19.80;1.00;;;;;;2258538;61;1768;-84
2021/07/03 05:25:05;87507.00;0.29;152.00;0.00;0.00;0.62;;;;;20.00;1.00;;;;;;2258838;61;1177;-83
2021/07/03 05:27:32;78161.00;0.26;135.86;0.00;0.00;0.62;;;;;20.20;1.00;;;;;;2259907;61;1721;-85
2021/07/03 05:29:59;15648.00;0.05;27.73;0.00;0.00;0.62;;;;;20.30;1.00;;;;;;2258791;61;2020;-85
2021/07/03 05:32:26;410269.00;1.37;707.46;100793.00;0.34;174.94;;;;;20.40;1.00;;;;;;2259061;61;1265;-85
2021/07/03 05:34:53;116749.00;0.39;202.47;0.00;0.00;0.62;;;;;20.40;1.00;;;;;;2259025;61;1148;-85
2021/07/03 05:37:20;33512.00;0.11;58.66;0.00;0.00;0.62;;;;;20.20;1.00;;;;;;2258640;61;1102;-85
2021/07/03 05:39:49;109228.00;0.36;189.50;0.00;0.00;0.62;;;;;20.20;1.00;;;;;;2259189;61;1208;-85
2021/07/03 05:42:15;74401.00;0.25;129.36;0.00;0.00;0.62;;;;;20.40;1.00;;;;;;2259186;61;1381;-84
2021/07/03 05:44:42;126484.00;0.42;219.27;0.00;0.00;0.62;;;;;20.60;1.00;;;;;;2260778;61;1688;-86
2021/07/03 05:47:09;100684.00;0.34;174.75;7039.00;0.02;12.82;;;;;21.50;1.00;;;;;;2260839;61;1152;-85
2021/07/03 05:49:36;44570.00;0.15;77.79;0.00;0.00;0.62;;;;;23.20;1.00;;;;;;2258628;61;2000;-85
2021/07/03 05:52:04;321220.00;1.07;554.40;81116.00;0.27;140.96;;;;;24.80;1.00;;;;;;2257652;61;1378;-86
2021/07/03 05:54:32;140467.00;0.47;243.38;54945.00;0.18;95.74;;;;;26.10;1.00;;;;;;2258073;61;1272;-85
2021/07/03 05:57:00;132606.00;0.44;229.82;0.00;0.00;0.62;;;;;27.00;1.00;;;;;;2257959;61;1223;-85
2021/07/03 05:59:27;20839.00;0.07;36.72;0.00;0.00;0.62;;;;;27.80;1.00;;;;;;2257669;61;1109;-85
2021/07/03 06:01:54;24579.00;0.08;43.20;0.00;0.00;0.62;;;;;28.30;1.00;;;;;;2257708;61;1373;-85
2021/07/03 06:04:21;195146.00;0.65;337.57;57840.00;0.19;100.74;;;;;28.60;1.00;;;;;;2257719;61;1153;-86
2021/07/03 06:06:48;0.00;0.00;0.62;0.00;0.00;0.62;;;;;28.60;1.00;;;;;;2257576;61;1144;-85
2021/07/03 06:09:15;0.00;0.00;0.62;0.00;0.00;0.62;;;;;28.90;1.00;;;;;;2257776;61;1759;-86
2021/07/03 06:11:42;22101.00;0.07;38.91;0.00;0.00;0.62;;;;;29.70;1.00;;;;;;2257165;61;1956;-86
2021/07/03 06:14:10;65491.00;0.22;113.97;0.00;0.00;0.62;;;;;30.00;1.00;;;;;;2256981;61;1375;-85
2021/07/03 06:16:37;32242.00;0.11;56.46;0.00;0.00;0.62;;;;;30.90;1.00;;;;;;2258425;61;1132;-86
2021/07/03 06:19:04;281261.00;0.94;485.71;59562.00;0.20;103.72;;;;;31.50;1.00;;;;;;2259094;61;1702;-86
2021/07/03 06:21:32;0.00;0.00;0.62;0.00;0.00;0.62;;;;;32.30;1.00;;;;;;2258904;61;1160;-86
2021/07/03 06:23:59;5486.00;0.02;10.13;0.00;0.00;0.62;;;;;32.60;1.00;;;;;;2259002;61;1692;-87
2021/07/03 06:26:26;198502.00;0.66;343.35;0.00;0.00;0.62;;;;;32.60;1.00;;;;;;2258804;61;1705;-87
2021/07/03 06:28:53;93840.00;0.31;162.94;0.00;0.00;0.62;;;;;33.50;1.00;;;;;;2258810;61;1248;-87
2021/07/03 06:31:23;97423.00;0.32;169.12;0.00;0.00;0.62;;;;;32.80;1.00;;;;;;2259073;61;2024;-87
2021/07/03 06:33:50;276297.00;0.92;477.17;37598.00;0.13;65.73;;;;;32.00;1.00;;;;;;2259912;61;1294;-88
2021/07/03 06:36:18;0.00;0.00;0.62;0.00;0.00;0.62;;;;;32.60;1.00;;;;;;2259236;61;1092;-87
2021/07/03 06:38:45;133492.00;0.44;231.35;0.00;0.00;0.62;;;;;31.20;1.00;;;;;;2261570;61;1131;-88
2021/07/03 06:41:12;34417.00;0.11;60.23;0.00;0.00;0.62;;;;;31.70;1.00;;;;;;2261939;61;1292;-87
2021/07/03 06:43:39;5634.00;0.02;10.38;0.00;0.00;0.62;;;;;30.80;1.00;;;;;;2261304;61;1284;-86
2021/07/03 06:46:06;90906.00;0.30;157.87;0.00;0.00;0.62;;;;;31.50;1.00;;;;;;2260678;61;1132;-87
2021/07/03 06:48:34;0.00;0.00;0.62;0.00;0.00;0.62;;;;;32.40;1.00;;;;;;2260315;61;1118;-87
2021/07/03 06:51:03;68626.00;0.23;119.39;0.00;0.00;0.62;;;;;33.00;1.00;;;;;;2259421;61;1924;-87
2021/07/03 06:53:30;0.00;0.00;0.62;0.00;0.00;0.62;;;;;33.20;1.00;;;;;;2263405;61;1360;-87
2021/07/03 06:55:57;111685.00;0.37;193.74;0.00;0.00;0.62;;;;;33.80;1.00;;;;;;2263067;61;1140;-87
2021/07/03 06:58:24;59334.00;0.20;103.33;0.00;0.00;0.62;;;;;33.00;1.00;;;;;;2262528;61;1620;-87
2021/07/03 07:00:51;0.00;0.00;0.62;0.00;0.00;0.62;;;;;32.40;1.00;;;;;;2262583;61;1150;-87
2021/07/03 07:03:18;32720.00;0.11;57.29;0.00;0.00;0.62;;;;;32.70;1.00;;;;;;2261174;61;1582;-84
2021/07/03 07:32:55;30898.00;0.10;54.14;0.00;0.00;0.62;;;;;31.80;1.00;;;;;;2504383;55;3629;31
2021/07/03 07:42:49;0.00;0.00;0.62;0.00;0.00;0.62;;;;;33.00;1.00;;;;;;2261774;61;898;-87
2021/07/03 09:04:51;7321.00;0.02;13.31;0.00;0.00;0.62;;;;;34.00;1.00;;;;;;2368689;40;3753;31
2021/07/03 11:18:24;117180.00;0.39;203.22;0.00;0.00;0.62;;;;;30.00;1.00;;;;;;2275430;61;878;-88
2021/07/03 12:50:12;0.00;0.00;0.62;0.00;0.00;0.62;;;;;30.10;1.00;;;;;;2275992;61;914;-87
2021/07/03 13:05:10;0.00;0.00;0.62;0.00;0.00;0.62;;;;;30.10;1.00;;;;;;2512728;40;3467;31
2021/07/03 13:22:25;0.00;0.00;0.62;0.00;0.00;0.62;;;;;30.10;1.00;;;;;;2279371;61;892;-87
2021/07/03 13:59:56;0.00;0.00;0.62;0.00;0.00;0.62;;;;;31.50;1.00;;;;;;2271345;61;893;-87
2021/07/03 14:59:11;0.00;0.00;0.62;0.00;0.00;0.62;;;;;31.80;1.00;;;;;;2287577;61;869;-88
2021/07/03 15:09:01;53148.00;0.18;92.63;0.00;0.00;0.62;;;;;31.40;1.00;;;;;;2279268;61;868;-89
2021/07/03 15:21:21;0.00;0.00;0.62;0.00;0.00;0.62;;;;;31.00;1.00;;;;;;2275182;61;884;-88
2021/07/03 15:28:44;0.00;0.00;0.62;0.00;0.00;0.62;;;;;31.30;1.00;;;;;;2271393;61;988;-87
2021/07/03 15:36:06;0.00;0.00;0.62;0.00;0.00;0.62;;;;;31.80;1.00;;;;;;2283712;61;1309;-89
2021/07/03 16:40:14;173911.00;0.58;301.00;68504.00;0.23;119.18;;;;;29.70;1.00;;;;;;2282223;61;1157;-82
2021/07/03 16:42:41;168617.00;0.56;291.88;68966.00;0.23;119.97;;;;;29.90;1.00;;;;;;2270768;61;1026;-83
2021/07/03 16:45:09;175710.00;0.59;304.10;64979.00;0.22;113.08;;;;;29.90;1.00;;;;;;2270471;61;1371;-82
2021/07/03 16:52:31;171628.00;0.57;297.07;63661.00;0.21;110.81;;;;;29.90;1.00;;;;;;2277955;61;1976;-81
2021/07/03 16:57:28;174367.00;0.58;301.79;65927.00;0.22;114.72;;;;;29.90;1.00;;;;;;2278523;61;1413;-80
2021/07/03 17:04:50;201873.00;0.67;349.15;65061.00;0.22;113.22;;;;;29.60;1.00;;;;;;2278638;61;1333;-84
2021/07/03 17:07:17;170233.00;0.57;294.67;69619.00;0.23;121.10;;;;;29.40;1.00;;;;;;2266885;61;997;-83
2021/07/03 17:22:05;244806.00;0.82;423.02;75372.00;0.25;131.04;;;;;24.30;1.00;;;;;;2278403;61;1379;-82
2021/07/03 17:24:32;455756.00;1.52;785.68;140038.00;0.47;242.64;;;;;24.10;1.00;;;;;;2266887;61;953;-84
2021/07/03 17:31:54;240761.00;0.80;416.06;71413.00;0.24;124.20;;;;;23.40;1.00;;;;;;2352325;40;3633;31
2021/07/03 17:54:12;42156.00;0.14;73.62;0.00;0.00;0.62;;;;;22.80;1.00;;;;;;2520129;40;3571;31
2021/07/03 17:56:39;276843.00;0.92;478.11;0.00;0.00;0.62;;;;;22.80;1.00;;;;;;2278294;61;1392;-85
2021/07/03 17:59:06;103562.00;0.35;179.72;0.00;0.00;0.62;;;;;23.00;1.00;;;;;;2276790;61;986;-85
2021/07/03 18:01:33;215504.00;0.72;372.61;76065.00;0.25;132.24;;;;;22.80;1.00;;;;;;2269711;61;994;-84
2021/07/03 18:04:00;355187.00;1.18;612.78;62300.00;0.21;108.45;;;;;22.80;1.00;;;;;;2503030;40;3827;31
2021/07/03 18:06:27;339365.00;1.13;585.58;73995.00;0.25;128.66;;;;;23.20;1.00;;;;;;2273619;61;1403;-81
2021/07/03 18:08:55;294084.00;0.98;507.75;72573.00;0.24;126.21;;;;;23.50;1.00;;;;;;2272561;61;982;-85
2021/07/03 18:11:23;344887.00;1.15;595.07;73735.00;0.25;128.21;;;;;23.80;1.00;;;;;;2272621;61;1990;-84
2021/07/03 18:16:18;203393.00;0.68;351.76;87001.00;0.29;151.13;;;;;23.90;1.00;;;;;;2278636;61;1414;-84
2021/07/03 18:21:13;319984.00;1.07;552.27;75193.00;0.25;130.73;;;;;23.70;1.00;;;;;;2278437;61;1413;-84
2021/07/03 18:23:40;187672.00;0.63;324.70;73178.00;0.24;127.25;;;;;23.60;1.00;;;;;;2266488;61;1000;-83
2021/07/03 18:26:07;226862.00;0.76;392.15;69646.00;0.23;121.15;;;;;23.60;1.00;;;;;;2276616;61;1372;-83
2021/07/03 18:28:35;226636.00;0.76;391.76;68116.00;0.23;118.50;;;;;23.50;1.00;;;;;;2269613;61;997;-81
2021/07/03 18:31:03;301703.00;1.01;520.85;70120.00;0.23;121.97;;;;;23.30;1.00;;;;;;2269189;61;1998;-83
2021/07/03 18:33:31;247686.00;0.83;427.97;74310.00;0.25;129.21;;;;;23.40;1.00;;;;;;2269697;61;966;-84
2021/07/03 18:36:01;316522.00;1.06;546.32;59808.00;0.20;104.14;;;;;23.50;1.00;;;;;;2275966;61;1260;-82
2021/07/03 18:38:27;143913.00;0.48;249.32;0.00;0.00;0.62;;;;;23.30;1.00;;;;;;2266241;61;986;-84
2021/07/03 18:40:54;135701.00;0.45;235.16;0.00;0.00;0.62;;;;;22.90;1.40;;;;;;2269225;61;1004;-82
2021/07/03 18:43:22;141844.00;0.47;245.75;0.00;0.00;0.62;;;;;22.70;2.90;;;;;;2264248;61;1021;-81
2021/07/03 18:45:50;284897.00;0.95;491.96;68289.00;0.23;118.80;;;;;22.90;2.90;;;;;;2263815;61;1199;-83
2021/07/03 18:48:17;365062.00;1.22;629.75;73976.00;0.25;128.63;;;;;23.00;2.60;;;;;;2264249;61;1015;-83
2021/07/03 18:50:44;472685.00;1.58;814.81;76934.00;0.26;133.74;;;;;22.90;2.90;;;;;;2264143;61;985;-84
2021/07/03 18:53:11;253189.00;0.84;437.44;65487.00;0.22;113.96;;;;;23.00;3.00;;;;;;2255924;61;1935;-83
2021/07/03 20:14:32;168806.00;0.56;292.21;0.00;0.00;0.62;;;;;22.60;1.20;;;;;;2282712;61;907;-86
2021/07/03 21:48:10;73259.00;0.24;127.39;0.00;0.00;0.62;;;;;22.70;1.00;;;;;;2283493;61;982;-86
2021/07/03 21:50:37;20880.00;0.07;36.79;0.00;0.00;0.62;;;;;22.60;1.00;;;;;;2271091;61;916;-86
2021/07/03 21:55:31;14009.00;0.05;24.89;0.00;0.00;0.62;;;;;22.70;1.00;;;;;;2285002;61;1395;-83
2021/07/03 21:57:58;318236.00;1.06;549.27;516.00;0.00;1.51;;;;;22.80;1.00;;;;;;2281728;61;887;-85
2021/07/03 22:00:36;159123.00;0.53;275.53;0.00;0.00;0.62;;;;;22.90;1.00;;;;;;2278419;61;940;-85
2021/07/03 22:22:49;18918.00;0.06;33.40;0.00;0.00;0.62;;;;;22.80;1.00;;;;;;2476053;40;3732;31
2021/07/03 22:45:00;141907.00;0.47;245.86;0.00;0.00;0.62;;;;;22.40;2.00;;;;;;2436201;39;3556;31
2021/07/03 23:27:11;58013.00;0.19;101.04;0.00;0.00;0.62;;;;;22.50;1.00;;;;;;2279045;61;947;-84
